createdAt,value
2018-09-03T01:00:36.837Z,4.20
2018-09-03T01:01:36.787Z,6.60
2018-09-03T01:02:36.769Z,6.40
2018-09-03T01:03:36.759Z,6.50
2018-09-03T01:04:36.753Z,6.60
2018-09-03T01:05:36.787Z,6.60
2018-09-03T01:06:36.728Z,6.60
2018-09-03T01:07:36.715Z,6.80
2018-09-03T01:08:36.704Z,6.70
2018-09-03T01:09:36.696Z,6.80
2018-09-03T01:10:36.728Z,6.80
2018-09-03T01:11:36.670Z,6.90
2018-09-03T01:12:36.664Z,7.10
2018-09-03T01:13:36.650Z,6.60
2018-09-03T01:14:36.637Z,6.50
2018-09-03T01:15:36.675Z,6.90
2018-09-03T01:16:36.622Z,6.90
2018-09-03T01:17:36.605Z,6.50
2018-09-03T01:18:36.594Z,6.10
2018-09-03T01:19:36.581Z,6.30
2018-09-03T01:20:36.615Z,6.40
2018-09-03T01:21:36.561Z,7.00
2018-09-03T01:22:36.551Z,6.20
2018-09-03T01:23:36.539Z,6.50
2018-09-03T01:24:36.526Z,6.80
2018-09-03T01:25:36.559Z,6.00
2018-09-03T01:26:36.505Z,6.20
2018-09-03T01:27:36.495Z,6.00
2018-09-03T01:28:36.481Z,6.10
2018-09-03T01:29:36.549Z,6.20
2018-09-03T01:30:36.506Z,6.40
2018-09-03T01:31:36.450Z,6.60
2018-09-03T01:32:36.438Z,6.00
2018-09-03T01:33:36.424Z,7.10
2018-09-03T01:34:36.414Z,6.80
2018-09-03T01:35:36.450Z,7.70
2018-09-03T01:36:36.395Z,7.60
2018-09-03T01:37:36.382Z,8.50
2018-09-03T01:38:36.370Z,9.20
2018-09-03T01:39:36.359Z,9.70
2018-09-03T01:40:36.394Z,10.90
2018-09-03T01:41:36.338Z,10.50
2018-09-03T01:42:36.325Z,10.30
2018-09-03T01:43:36.314Z,9.90
2018-09-03T01:44:36.305Z,10.30
2018-09-03T01:45:36.348Z,10.50
2018-09-03T01:46:36.281Z,10.30
2018-09-03T01:47:36.275Z,10.40
2018-09-03T01:48:36.259Z,10.40
2018-09-03T01:49:36.249Z,9.80
2018-09-03T01:50:36.281Z,9.80
2018-09-03T01:51:36.226Z,10.10
2018-09-03T01:52:36.214Z,10.00
2018-09-03T01:53:36.204Z,9.90
2018-09-03T01:54:36.192Z,10.20
2018-09-03T01:55:36.233Z,9.80
2018-09-03T01:56:36.170Z,9.30
2018-09-03T01:57:36.160Z,9.60
2018-09-03T01:58:36.151Z,9.20
2018-09-03T01:59:36.136Z,9.00
2018-09-03T02:00:36.235Z,7.90
2018-09-03T02:01:36.121Z,8.50
2018-09-03T02:02:36.106Z,8.60
2018-09-03T02:03:36.094Z,7.80
2018-09-03T02:04:36.086Z,8.00
2018-09-03T02:05:36.074Z,8.00
2018-09-03T02:06:36.110Z,8.40
2018-09-03T02:07:36.061Z,8.20
2018-09-03T02:08:36.041Z,7.90
2018-09-03T02:09:36.029Z,7.70
2018-09-03T02:10:36.018Z,8.00
2018-09-03T02:11:36.057Z,7.90
2018-09-03T02:12:35.996Z,7.50
2018-09-03T02:13:35.983Z,7.60
2018-09-03T02:14:35.974Z,7.50
2018-09-03T02:15:35.962Z,7.70
2018-09-03T02:16:36.000Z,7.50
2018-09-03T02:17:35.941Z,7.50
2018-09-03T02:18:35.933Z,7.70
2018-09-03T02:19:35.918Z,7.40
2018-09-03T02:20:35.906Z,7.20
2018-09-03T02:21:35.943Z,7.10
2018-09-03T02:22:35.887Z,6.80
2018-09-03T02:23:35.874Z,6.50
2018-09-03T02:24:35.875Z,6.40
2018-09-03T02:25:35.855Z,6.40
2018-09-03T02:26:35.889Z,6.10
2018-09-03T02:27:35.852Z,6.50
2018-09-03T02:28:35.820Z,6.60
2018-09-03T02:29:35.810Z,6.60
2018-09-03T02:30:35.799Z,6.00
2018-09-03T02:31:35.834Z,5.70
2018-09-03T02:32:35.775Z,6.10
2018-09-03T02:33:35.766Z,5.80
2018-09-03T02:34:35.752Z,5.80
2018-09-03T02:35:35.743Z,6.00
2018-09-03T02:36:35.777Z,5.60
2018-09-03T02:37:35.720Z,5.20
2018-09-03T02:38:35.715Z,5.40
2018-09-03T02:39:35.705Z,5.20
2018-09-03T02:40:35.691Z,5.60
2018-09-03T02:41:35.723Z,5.50
2018-09-03T02:42:35.664Z,5.60
2018-09-03T02:43:35.654Z,5.40
2018-09-03T02:44:35.644Z,5.80
2018-09-03T02:45:35.632Z,5.80
2018-09-03T02:46:35.668Z,5.50
2018-09-03T02:47:35.618Z,5.70
2018-09-03T02:48:35.607Z,6.00
2018-09-03T02:49:35.589Z,5.80
2018-09-03T02:50:35.577Z,5.80
2018-09-03T02:51:35.610Z,5.30
2018-09-03T02:52:35.556Z,5.90
2018-09-03T02:53:35.545Z,5.60
2018-09-03T02:54:35.533Z,5.90
2018-09-03T02:55:35.521Z,5.80
2018-09-03T02:56:35.555Z,6.10
2018-09-03T02:57:35.500Z,5.80
2018-09-03T02:58:35.494Z,5.90
2018-09-03T02:59:35.477Z,5.90
2018-09-03T03:00:35.467Z,5.90
2018-09-03T03:01:35.500Z,5.90
2018-09-03T03:02:35.443Z,6.00
2018-09-03T03:03:35.432Z,5.90
2018-09-03T03:04:35.428Z,6.00
2018-09-03T03:05:35.410Z,6.10
2018-09-03T03:06:35.445Z,6.00
2018-09-03T03:07:35.388Z,5.90
2018-09-03T03:08:35.376Z,6.10
2018-09-03T03:09:35.366Z,5.90
2018-09-03T03:10:35.357Z,6.10
2018-09-03T03:11:35.396Z,6.10
2018-09-03T03:12:35.337Z,5.90
2018-09-03T03:13:35.321Z,6.10
2018-09-03T03:14:35.310Z,6.30
2018-09-03T03:15:35.303Z,6.30
2018-09-03T03:16:35.338Z,6.20
2018-09-03T03:17:35.277Z,6.30
2018-09-03T03:18:35.268Z,6.30
2018-09-03T03:19:35.256Z,6.10
2018-09-03T03:20:35.243Z,6.50
2018-09-03T03:21:35.279Z,6.70
2018-09-03T03:22:35.218Z,6.60
2018-09-03T03:23:35.213Z,6.50
2018-09-03T03:24:35.201Z,6.90
2018-09-03T03:25:35.187Z,6.50
2018-09-03T03:26:35.228Z,6.90
2018-09-03T03:27:35.170Z,6.90
2018-09-03T03:28:35.152Z,7.00
2018-09-03T03:29:35.142Z,6.80
2018-09-03T03:30:35.132Z,7.10
2018-09-03T03:31:35.167Z,6.50
2018-09-03T03:32:35.115Z,6.80
2018-09-03T03:33:35.102Z,7.60
2018-09-03T03:34:35.088Z,7.00
2018-09-03T03:35:35.080Z,7.00
2018-09-03T03:36:35.112Z,7.10
2018-09-03T03:37:35.054Z,7.10
2018-09-03T03:38:35.045Z,7.20
2018-09-03T03:39:35.032Z,6.80
2018-09-03T03:40:35.020Z,6.70
2018-09-03T03:41:35.013Z,6.40
2018-09-03T03:42:35.048Z,6.10
2018-09-03T03:43:34.987Z,7.00
2018-09-03T03:44:34.980Z,6.80
2018-09-03T03:45:34.963Z,6.60
2018-09-03T03:46:34.955Z,6.50
2018-09-03T03:47:34.987Z,6.50
2018-09-03T03:48:34.953Z,6.50
2018-09-03T03:49:34.921Z,6.30
2018-09-03T03:50:34.909Z,6.40
2018-09-03T03:51:34.897Z,5.50
2018-09-03T03:52:34.936Z,5.90
2018-09-03T03:53:34.876Z,5.50
2018-09-03T03:54:34.865Z,5.80
2018-09-03T03:55:34.861Z,5.50
2018-09-03T03:56:34.843Z,5.70
2018-09-03T03:57:34.886Z,5.30
2018-09-03T03:58:34.817Z,5.70
2018-09-03T03:59:34.809Z,5.50
2018-09-03T04:00:34.801Z,4.90
2018-09-03T04:01:34.794Z,5.40
2018-09-03T04:02:34.821Z,5.10
2018-09-03T04:03:34.766Z,5.00
2018-09-03T04:04:34.754Z,4.80
2018-09-03T04:05:34.744Z,5.00
2018-09-03T04:06:34.734Z,5.00
2018-09-03T04:07:34.766Z,5.20
2018-09-03T04:08:34.710Z,5.30
2018-09-03T04:09:34.698Z,5.00
2018-09-03T04:10:34.687Z,5.10
2018-09-03T04:11:34.675Z,4.90
2018-09-03T04:12:34.718Z,4.60
2018-09-03T04:13:34.653Z,5.00
2018-09-03T04:14:34.647Z,4.80
2018-09-03T04:15:34.631Z,4.90
2018-09-03T04:16:34.620Z,5.00
2018-09-03T04:17:34.655Z,4.70
2018-09-03T04:18:34.601Z,4.90
2018-09-03T04:19:34.587Z,4.90
2018-09-03T04:20:34.576Z,5.00
2018-09-03T04:21:34.566Z,5.40
2018-09-03T04:22:34.599Z,5.20
2018-09-03T04:23:34.552Z,5.10
2018-09-03T04:24:34.534Z,5.70
2018-09-03T04:25:34.519Z,5.80
2018-09-03T04:26:34.508Z,5.70
2018-09-03T04:27:34.547Z,5.90
2018-09-03T04:28:34.490Z,5.80
2018-09-03T04:29:34.477Z,5.90
2018-09-03T04:30:34.465Z,5.80
2018-09-03T04:31:34.459Z,6.10
2018-09-03T04:32:34.487Z,6.10
2018-09-03T04:33:34.430Z,6.20
2018-09-03T04:34:34.428Z,6.10
2018-09-03T04:35:34.415Z,6.20
2018-09-03T04:36:34.396Z,6.30
2018-09-03T04:37:34.432Z,6.10
2018-09-03T04:38:34.417Z,6.50
2018-09-03T04:39:34.365Z,6.20
2018-09-03T04:40:34.352Z,6.60
2018-09-03T04:41:34.341Z,6.40
2018-09-03T04:42:34.376Z,6.50
2018-09-03T04:43:34.319Z,6.10
2018-09-03T04:44:34.308Z,6.40
2018-09-03T04:45:34.339Z,6.00
2018-09-03T04:46:34.298Z,6.10
2018-09-03T04:47:34.320Z,5.70
2018-09-03T04:48:34.264Z,5.90
2018-09-03T04:49:34.252Z,5.30
2018-09-03T04:50:34.242Z,6.10
2018-09-03T04:51:34.230Z,6.40
2018-09-03T04:52:34.264Z,6.80
2018-09-03T04:53:34.224Z,6.40
2018-09-03T04:54:34.226Z,8.70
2018-09-03T04:55:34.186Z,8.80
2018-09-03T04:56:34.179Z,9.40
2018-09-03T04:57:34.210Z,9.70
2018-09-03T04:58:34.154Z,10.60
2018-09-03T04:59:34.144Z,10.70
2018-09-03T05:00:34.129Z,10.50
2018-09-03T05:01:34.118Z,11.00
2018-09-03T05:02:34.154Z,10.40
2018-09-03T05:03:34.101Z,10.50
2018-09-03T05:04:34.103Z,10.20
2018-09-03T05:05:34.160Z,9.40
2018-09-03T05:06:34.065Z,10.00
2018-09-03T05:07:34.098Z,9.80
2018-09-03T05:08:34.087Z,10.00
2018-09-03T05:09:34.032Z,9.10
2018-09-03T05:10:34.018Z,9.80
2018-09-03T05:11:34.025Z,9.10
2018-09-03T05:12:34.012Z,9.00
2018-09-03T05:13:34.030Z,9.50
2018-09-03T05:14:33.974Z,9.20
2018-09-03T05:15:33.962Z,8.90
2018-09-03T05:16:33.952Z,9.50
2018-09-03T05:17:33.942Z,9.70
2018-09-03T05:18:33.977Z,10.00
2018-09-03T05:19:33.918Z,9.80
2018-09-03T05:20:33.909Z,9.70
2018-09-03T05:21:33.895Z,9.20
2018-09-03T05:22:33.887Z,9.70
2018-09-03T05:23:33.922Z,8.90
2018-09-03T05:24:33.860Z,8.50
2018-09-03T05:25:33.853Z,7.70
2018-09-03T05:26:33.840Z,7.60
2018-09-03T05:27:33.832Z,7.20
2018-09-03T05:28:33.863Z,6.90
2018-09-03T05:29:33.811Z,6.80
2018-09-03T05:30:33.795Z,6.30
2018-09-03T05:31:33.784Z,6.30
2018-09-03T05:32:33.777Z,6.30
2018-09-03T05:33:33.809Z,6.00
2018-09-03T05:34:33.753Z,6.70
2018-09-03T05:35:33.744Z,6.70
2018-09-03T05:36:33.729Z,6.30
2018-09-03T05:37:33.719Z,6.10
2018-09-03T05:38:33.756Z,6.40
2018-09-03T05:39:33.697Z,6.20
2018-09-03T05:40:33.685Z,6.00
2018-09-03T05:41:33.672Z,5.90
2018-09-03T05:42:33.669Z,5.90
2018-09-03T05:43:33.852Z,5.80
2018-09-03T05:44:33.638Z,5.80
2018-09-03T05:45:33.627Z,6.10
2018-09-03T05:46:33.628Z,6.00
2018-09-03T05:47:33.610Z,6.00
2018-09-03T05:48:33.647Z,6.00
2018-09-03T05:49:33.600Z,5.80
2018-09-03T05:50:33.643Z,5.90
2018-09-03T05:51:33.561Z,6.00
2018-09-03T05:52:33.552Z,6.10
2018-09-03T05:53:33.583Z,5.80
2018-09-03T05:54:33.528Z,5.90
2018-09-03T05:55:33.524Z,6.20
2018-09-03T05:56:33.524Z,5.70
2018-09-03T05:57:33.496Z,5.90
2018-09-03T05:58:33.532Z,5.70
2018-09-03T05:59:33.481Z,5.80
2018-09-03T06:00:33.461Z,6.10
2018-09-03T06:01:33.450Z,6.00
2018-09-03T06:02:33.443Z,6.30
2018-09-03T06:03:33.474Z,8.90
2018-09-03T06:04:33.418Z,6.20
2018-09-03T06:05:33.407Z,6.10
2018-09-03T06:06:33.399Z,5.90
2018-09-03T06:07:33.383Z,5.60
2018-09-03T06:08:33.416Z,6.20
2018-09-03T06:09:33.364Z,6.30
2018-09-03T06:10:33.383Z,5.50
2018-09-03T06:11:33.339Z,5.80
2018-09-03T06:12:33.330Z,6.20
2018-09-03T06:13:33.362Z,6.10
2018-09-03T06:14:33.306Z,6.10
2018-09-03T06:15:33.304Z,5.80
2018-09-03T06:16:33.282Z,5.80
2018-09-03T06:17:33.272Z,6.00
2018-09-03T06:18:33.307Z,9.20
2018-09-03T06:19:33.252Z,5.90
2018-09-03T06:20:33.240Z,6.30
2018-09-03T06:21:33.228Z,6.30
2018-09-03T06:22:33.216Z,6.40
2018-09-03T06:23:33.250Z,5.80
2018-09-03T06:24:33.192Z,6.00
2018-09-03T06:25:33.185Z,6.60
2018-09-03T06:26:33.220Z,6.00
2018-09-03T06:27:33.167Z,6.10
2018-09-03T06:28:33.199Z,6.20
2018-09-03T06:29:33.139Z,5.80
2018-09-03T06:30:33.127Z,6.30
2018-09-03T06:31:33.124Z,5.80
2018-09-03T06:32:33.106Z,6.10
2018-09-03T06:33:33.149Z,5.90
2018-09-03T06:34:33.096Z,5.80
2018-09-03T06:35:33.083Z,5.80
2018-09-03T06:36:33.064Z,6.20
2018-09-03T06:37:33.054Z,6.20
2018-09-03T06:38:33.084Z,6.40
2018-09-03T06:39:33.027Z,5.90
2018-09-03T06:40:33.018Z,6.10
2018-09-03T06:41:33.007Z,5.90
2018-09-03T06:42:32.998Z,6.50
2018-09-03T06:43:33.079Z,6.10
2018-09-03T06:44:32.974Z,6.50
2018-09-03T06:45:33.009Z,5.60
2018-09-03T06:46:32.955Z,6.10
2018-09-03T06:47:32.943Z,5.80
2018-09-03T06:48:32.977Z,5.90
2018-09-03T06:49:32.919Z,6.00
2018-09-03T06:50:32.912Z,6.00
2018-09-03T06:51:32.895Z,5.60
2018-09-03T06:52:32.923Z,5.40
2018-09-03T06:53:32.918Z,5.90
2018-09-03T06:54:32.953Z,5.60
2018-09-03T06:55:32.853Z,6.50
2018-09-03T06:56:32.843Z,6.00
2018-09-03T06:57:32.832Z,5.90
2018-09-03T06:58:32.834Z,5.30
2018-09-03T06:59:32.905Z,5.50
2018-09-03T07:00:32.798Z,5.80
2018-09-03T07:01:32.789Z,5.70
2018-09-03T07:02:32.776Z,6.00
2018-09-03T07:03:32.769Z,5.70
2018-09-03T07:04:32.798Z,5.70
2018-09-03T07:05:32.741Z,6.20
2018-09-03T07:06:32.729Z,6.30
2018-09-03T07:07:32.732Z,5.80
2018-09-03T07:08:32.725Z,6.10
2018-09-03T07:09:32.747Z,6.50
2018-09-03T07:10:32.689Z,5.90
2018-09-03T07:11:32.677Z,5.60
2018-09-03T07:12:32.663Z,5.90
2018-09-03T07:13:32.672Z,6.30
2018-09-03T07:14:33.059Z,6.00
2018-09-03T07:15:32.634Z,7.60
2018-09-03T07:16:32.621Z,6.50
2018-09-03T07:17:32.610Z,6.60
2018-09-03T07:18:32.624Z,6.90
2018-09-03T07:19:32.636Z,7.20
2018-09-03T07:20:32.578Z,6.70
2018-09-03T07:21:32.596Z,6.90
2018-09-03T07:22:32.559Z,6.10
2018-09-03T07:23:32.544Z,6.20
2018-09-03T07:24:32.580Z,6.30
2018-09-03T07:25:32.522Z,6.50
2018-09-03T07:26:32.511Z,6.50
2018-09-03T07:27:32.500Z,6.50
2018-09-03T07:28:32.486Z,6.30
2018-09-03T07:29:32.552Z,6.30
2018-09-03T07:30:32.470Z,6.60
2018-09-03T07:31:32.454Z,5.90
2018-09-03T07:32:32.443Z,5.80
2018-09-03T07:33:32.432Z,7.10
2018-09-03T07:34:32.475Z,6.10
2018-09-03T07:35:32.418Z,6.80
2018-09-03T07:36:32.399Z,6.80
2018-09-03T07:37:32.392Z,6.60
2018-09-03T07:38:32.379Z,6.60
2018-09-03T07:39:32.415Z,7.20
2018-09-03T07:40:32.356Z,6.70
2018-09-03T07:41:32.347Z,6.80
2018-09-03T07:42:32.332Z,7.10
2018-09-03T07:43:32.322Z,7.10
2018-09-03T07:44:32.377Z,7.50
2018-09-03T07:45:32.299Z,7.40
2018-09-03T07:46:32.290Z,7.40
2018-09-03T07:47:32.306Z,7.20
2018-09-03T07:48:32.266Z,7.00
2018-09-03T07:49:32.303Z,7.10
2018-09-03T07:50:32.242Z,8.00
2018-09-03T07:51:32.240Z,7.90
2018-09-03T07:52:32.219Z,7.10
2018-09-03T07:53:32.208Z,7.70
2018-09-03T07:54:32.259Z,8.00
2018-09-03T07:55:32.187Z,8.30
2018-09-03T07:56:32.176Z,8.80
2018-09-03T07:57:32.164Z,9.60
2018-09-03T07:58:32.156Z,9.30
2018-09-03T07:59:32.189Z,9.20
2018-09-03T08:00:32.132Z,9.30
2018-09-03T08:01:32.119Z,9.50
2018-09-03T08:02:32.108Z,10.10
2018-09-03T08:03:32.098Z,9.60
2018-09-03T08:04:32.140Z,10.60
2018-09-03T08:05:32.080Z,10.10
2018-09-03T08:06:32.092Z,10.30
2018-09-03T08:07:32.052Z,10.80
2018-09-03T08:08:32.042Z,11.00
2018-09-03T08:09:32.074Z,11.90
2018-09-03T08:10:32.019Z,11.40
2018-09-03T08:11:32.011Z,12.40
2018-09-03T08:12:31.998Z,13.00
2018-09-03T08:13:31.988Z,14.70
2018-09-03T08:14:32.019Z,14.80
2018-09-03T08:15:31.964Z,13.10
2018-09-03T08:16:31.951Z,13.20
2018-09-03T08:17:31.958Z,12.80
2018-09-03T08:18:31.969Z,12.40
2018-09-03T08:19:31.976Z,12.10
2018-09-03T08:20:31.911Z,12.40
2018-09-03T08:21:31.900Z,12.50
2018-09-03T08:22:31.887Z,12.50
2018-09-03T08:23:31.879Z,12.30
2018-09-03T08:24:31.934Z,13.10
2018-09-03T08:25:31.856Z,13.20
2018-09-03T08:26:31.841Z,12.00
2018-09-03T08:27:31.829Z,12.40
2018-09-03T08:28:31.876Z,12.40
2018-09-03T08:29:31.854Z,12.20
2018-09-03T08:30:31.797Z,12.40
2018-09-03T08:31:31.785Z,12.00
2018-09-03T08:32:31.781Z,12.60
2018-09-03T08:33:31.763Z,12.10
2018-09-03T08:34:31.802Z,12.60
2018-09-03T08:35:31.805Z,11.90
2018-09-03T08:36:31.730Z,11.80
2018-09-03T08:37:31.724Z,11.10
2018-09-03T08:38:31.709Z,11.50
2018-09-03T08:39:31.741Z,11.90
2018-09-03T08:40:31.688Z,12.50
2018-09-03T08:41:31.678Z,11.50
2018-09-03T08:42:31.667Z,12.20
2018-09-03T08:43:31.660Z,11.30
2018-09-03T08:44:31.688Z,11.50
2018-09-03T08:45:31.631Z,12.60
2018-09-03T08:46:31.621Z,10.20
2018-09-03T08:47:31.619Z,10.40
2018-09-03T08:48:31.601Z,9.80
2018-09-03T08:49:31.630Z,9.40
2018-09-03T08:50:31.576Z,9.40
2018-09-03T08:51:31.574Z,9.40
2018-09-03T08:52:31.552Z,10.00
2018-09-03T08:53:31.551Z,10.00
2018-09-03T08:54:31.578Z,10.40
2018-09-03T08:55:31.519Z,10.20
2018-09-03T08:56:31.509Z,10.30
2018-09-03T08:57:31.500Z,9.80
2018-09-03T08:58:31.490Z,9.40
2018-09-03T08:59:31.524Z,9.80
2018-09-03T09:00:31.467Z,8.90
2018-09-03T09:01:31.452Z,9.90
2018-09-03T09:02:31.447Z,10.20
2018-09-03T09:03:31.435Z,10.00
2018-09-03T09:04:31.472Z,9.50
2018-09-03T09:05:31.482Z,9.90
2018-09-03T09:06:31.399Z,10.30
2018-09-03T09:07:31.387Z,9.80
2018-09-03T09:08:31.375Z,10.10
2018-09-03T09:09:31.370Z,10.00
2018-09-03T09:10:31.407Z,10.30
2018-09-03T09:11:31.344Z,11.10
2018-09-03T09:12:31.348Z,11.70
2018-09-03T09:13:31.323Z,10.20
2018-09-03T09:14:31.309Z,11.60
2018-09-03T09:15:31.351Z,11.70
2018-09-03T09:16:31.286Z,11.70
2018-09-03T09:17:31.332Z,12.00
2018-09-03T09:18:31.264Z,11.30
2018-09-03T09:19:31.253Z,11.80
2018-09-03T09:20:31.290Z,11.00
2018-09-03T09:21:31.236Z,11.90
2018-09-03T09:22:31.220Z,11.60
2018-09-03T09:23:31.206Z,11.90
2018-09-03T09:24:31.211Z,11.90
2018-09-03T09:25:31.241Z,11.20
2018-09-03T09:26:31.178Z,10.90
2018-09-03T09:27:31.170Z,11.50
2018-09-03T09:28:31.156Z,11.20
2018-09-03T09:29:31.144Z,11.70
2018-09-03T09:30:31.185Z,11.50
2018-09-03T09:31:31.119Z,11.70
2018-09-03T09:32:31.119Z,11.80
2018-09-03T09:33:31.099Z,10.90
2018-09-03T09:34:31.090Z,11.10
2018-09-03T09:35:31.121Z,10.70
2018-09-03T09:36:31.063Z,9.80
2018-09-03T09:37:31.053Z,10.00
2018-09-03T09:38:31.058Z,10.20
2018-09-03T09:39:31.029Z,9.40
2018-09-03T09:40:31.072Z,10.10
2018-09-03T09:41:31.008Z,9.90
2018-09-03T09:42:30.999Z,10.30
2018-09-03T09:43:30.993Z,10.30
2018-09-03T09:44:30.983Z,10.50
2018-09-03T09:45:31.010Z,11.00
2018-09-03T09:46:30.953Z,10.20
2018-09-03T09:47:30.940Z,10.10
2018-09-03T09:48:30.931Z,10.00
2018-09-03T09:49:30.918Z,10.20
2018-09-03T09:50:30.952Z,10.30
2018-09-03T09:51:30.896Z,9.60
2018-09-03T09:52:30.887Z,10.00
2018-09-03T09:53:30.883Z,10.60
2018-09-03T09:54:30.863Z,10.20
2018-09-03T09:55:30.897Z,11.10
2018-09-03T09:56:30.840Z,10.40
2018-09-03T09:57:30.829Z,10.50
2018-09-03T09:58:30.819Z,10.70
2018-09-03T09:59:30.809Z,10.60
2018-09-03T10:00:30.852Z,10.90
2018-09-03T10:01:30.785Z,10.60
2018-09-03T10:02:30.775Z,11.00
2018-09-03T10:03:30.764Z,10.50
2018-09-03T10:04:30.757Z,10.40
2018-09-03T10:05:30.815Z,10.30
2018-09-03T10:06:30.739Z,10.30
2018-09-03T10:07:30.718Z,10.60
2018-09-03T10:08:30.731Z,11.10
2018-09-03T10:09:30.701Z,11.00
2018-09-03T10:10:30.736Z,11.20
2018-09-03T10:11:30.673Z,11.20
2018-09-03T10:12:30.670Z,11.20
2018-09-03T10:13:30.652Z,10.70
2018-09-03T10:14:30.655Z,11.40
2018-09-03T10:15:30.678Z,11.70
2018-09-03T10:16:30.623Z,11.40
2018-09-03T10:17:30.611Z,10.90
2018-09-03T10:18:30.598Z,11.20
2018-09-03T10:19:30.607Z,10.20
2018-09-03T10:20:30.627Z,11.00
2018-09-03T10:21:30.564Z,11.10
2018-09-03T10:22:30.556Z,11.10
2018-09-03T10:23:30.542Z,10.90
2018-09-03T10:24:30.528Z,11.20
2018-09-03T10:25:30.563Z,10.50
2018-09-03T10:26:30.507Z,10.00
2018-09-03T10:27:30.496Z,9.70
2018-09-03T10:28:30.484Z,10.20
2018-09-03T10:29:30.473Z,11.10
2018-09-03T10:30:30.511Z,10.50
2018-09-03T10:31:30.457Z,10.40
2018-09-03T10:32:30.442Z,10.30
2018-09-03T10:33:30.430Z,11.00
2018-09-03T10:34:30.418Z,9.90
2018-09-03T10:35:30.455Z,10.40
2018-09-03T10:36:30.397Z,10.70
2018-09-03T10:37:30.386Z,10.10
2018-09-03T10:38:30.377Z,10.60
2018-09-03T10:39:30.363Z,9.80
2018-09-03T10:40:30.404Z,9.90
2018-09-03T10:41:30.340Z,9.40
2018-09-03T10:42:30.334Z,9.00
2018-09-03T10:43:30.321Z,9.10
2018-09-03T10:44:30.313Z,10.30
2018-09-03T10:45:30.343Z,12.10
2018-09-03T10:46:30.293Z,10.40
2018-09-03T10:47:30.346Z,10.50
2018-09-03T10:48:30.265Z,10.30
2018-09-03T10:49:30.257Z,10.10
2018-09-03T10:50:30.290Z,10.20
2018-09-03T10:51:30.236Z,10.80
2018-09-03T10:52:30.234Z,10.80
2018-09-03T10:53:30.265Z,10.30
2018-09-03T10:54:30.202Z,10.10
2018-09-03T10:55:30.235Z,10.40
2018-09-03T10:56:30.215Z,11.10
2018-09-03T10:57:30.168Z,9.80
2018-09-03T10:58:30.155Z,9.40
2018-09-03T10:59:30.149Z,9.30
2018-09-03T11:00:30.181Z,9.00
2018-09-03T11:01:30.121Z,9.30
2018-09-03T11:02:30.109Z,9.80
2018-09-03T11:03:30.098Z,10.10
2018-09-03T11:04:30.086Z,10.00
2018-09-03T11:05:30.123Z,10.40
2018-09-03T11:06:30.065Z,10.00
2018-09-03T11:07:30.052Z,10.10
2018-09-03T11:08:30.041Z,9.30
2018-09-03T11:09:30.033Z,9.40
2018-09-03T11:10:30.080Z,9.00
2018-09-03T11:11:30.025Z,8.80
2018-09-03T11:12:29.998Z,8.60
2018-09-03T11:13:29.984Z,8.60
2018-09-03T11:14:30.021Z,8.30
2018-09-03T11:15:30.009Z,9.00
2018-09-03T11:16:29.952Z,8.30
2018-09-03T11:17:29.943Z,8.40
2018-09-03T11:18:29.930Z,8.80
2018-09-03T11:19:29.919Z,8.50
2018-09-03T11:20:29.961Z,8.60
2018-09-03T11:21:30.105Z,10.10
2018-09-03T11:22:29.966Z,9.70
2018-09-03T11:23:29.876Z,9.50
2018-09-03T11:24:29.861Z,8.50
2018-09-03T11:25:29.848Z,9.10
2018-09-03T11:26:29.886Z,8.60
2018-09-03T11:27:29.832Z,8.60
2018-09-03T11:28:29.816Z,8.40
2018-09-03T11:29:29.819Z,8.90
2018-09-03T11:30:29.795Z,8.80
2018-09-03T11:31:29.826Z,8.30
2018-09-03T11:32:29.772Z,8.30
2018-09-03T11:33:29.759Z,8.60
2018-09-03T11:34:29.748Z,9.00
2018-09-03T11:35:29.741Z,8.50
2018-09-03T11:36:29.770Z,8.70
2018-09-03T11:37:29.714Z,7.60
2018-09-03T11:38:29.705Z,7.70
2018-09-03T11:39:29.692Z,7.40
2018-09-03T11:40:29.683Z,7.10
2018-09-03T11:41:29.718Z,7.40
2018-09-03T11:42:29.658Z,7.30
2018-09-03T11:43:29.653Z,7.50
2018-09-03T11:44:29.643Z,7.80
2018-09-03T11:45:29.627Z,7.90
2018-09-03T11:46:29.668Z,7.70
2018-09-03T11:47:29.604Z,8.10
2018-09-03T11:48:29.717Z,8.40
2018-09-03T11:49:29.600Z,8.10
2018-09-03T11:50:29.600Z,8.60
2018-09-03T11:51:29.618Z,8.80
2018-09-03T11:52:29.548Z,8.70
2018-09-03T11:53:29.570Z,8.50
2018-09-03T11:54:29.549Z,8.60
2018-09-03T11:55:29.517Z,8.30
2018-09-03T11:56:29.551Z,8.00
2018-09-03T11:57:29.495Z,8.10
2018-09-03T11:58:29.500Z,8.50
2018-09-03T11:59:29.470Z,8.20
2018-09-03T12:00:29.491Z,8.50
2018-09-03T12:01:29.505Z,8.20
2018-09-03T12:02:29.439Z,8.20
2018-09-03T12:03:29.427Z,8.60
2018-09-03T12:04:29.417Z,8.50
2018-09-03T12:05:29.406Z,7.90
2018-09-03T12:06:29.449Z,8.70
2018-09-03T12:07:29.385Z,8.00
2018-09-03T12:08:29.373Z,8.00
2018-09-03T12:09:29.364Z,7.90
2018-09-03T12:10:29.350Z,7.80
2018-09-03T12:11:29.406Z,7.80
2018-09-03T12:12:29.347Z,8.30
2018-09-03T12:13:29.336Z,7.20
2018-09-03T12:14:29.314Z,8.40
2018-09-03T12:15:29.295Z,7.90
2018-09-03T12:16:29.340Z,7.60
2018-09-03T12:17:29.277Z,7.70
2018-09-03T12:18:29.263Z,8.00
2018-09-03T12:19:29.252Z,7.70
2018-09-03T12:20:29.242Z,7.90
2018-09-03T12:21:29.278Z,7.50
2018-09-03T12:22:29.223Z,7.30
2018-09-03T12:23:29.228Z,7.60
2018-09-03T12:24:29.196Z,7.80
2018-09-03T12:25:29.197Z,7.20
2018-09-03T12:26:29.222Z,7.80
2018-09-03T12:27:29.206Z,7.80
2018-09-03T12:28:29.156Z,7.60
2018-09-03T12:29:29.142Z,7.70
2018-09-03T12:30:29.133Z,8.40
2018-09-03T12:31:29.172Z,8.30
2018-09-03T12:32:29.108Z,8.40
2018-09-03T12:33:29.098Z,8.10
2018-09-03T12:34:29.086Z,7.80
2018-09-03T12:35:29.076Z,8.10
2018-09-03T12:36:29.125Z,7.50
2018-09-03T12:37:29.054Z,8.40
2018-09-03T12:38:29.046Z,8.20
2018-09-03T12:39:29.031Z,8.50
2018-09-03T12:40:29.026Z,8.30
2018-09-03T12:41:29.018Z,8.30
2018-09-03T12:42:29.044Z,8.20
2018-09-03T12:43:28.985Z,8.50
2018-09-03T12:44:28.979Z,8.10
2018-09-03T12:45:28.967Z,8.10
2018-09-03T12:46:28.977Z,8.40
2018-09-03T12:47:28.995Z,7.70
2018-09-03T12:48:28.933Z,8.20
2018-09-03T12:49:28.923Z,8.80
2018-09-03T12:50:28.928Z,8.40
2018-09-03T12:51:28.898Z,8.40
2018-09-03T12:52:28.940Z,8.70
2018-09-03T12:53:28.883Z,9.00
2018-09-03T12:54:28.867Z,8.00
2018-09-03T12:55:28.860Z,8.40
2018-09-03T12:56:28.845Z,8.20
2018-09-03T12:57:28.880Z,8.60
2018-09-03T12:58:28.830Z,8.20
2018-09-03T12:59:28.813Z,8.70
2018-09-03T13:00:28.800Z,8.60
2018-09-03T13:01:28.793Z,8.40
2018-09-03T13:02:28.821Z,8.70
2018-09-03T13:03:28.768Z,8.60
2018-09-03T13:04:28.800Z,8.50
2018-09-03T13:05:28.747Z,8.80
2018-09-03T13:06:28.735Z,8.30
2018-09-03T13:07:28.772Z,8.60
2018-09-03T13:08:28.711Z,8.40
2018-09-03T13:09:28.704Z,8.40
2018-09-03T13:10:28.688Z,8.30
2018-09-03T13:11:28.679Z,8.40
2018-09-03T13:12:28.756Z,8.40
2018-09-03T13:13:28.712Z,8.30
2018-09-03T13:14:28.645Z,8.00
2018-09-03T13:15:28.636Z,8.20
2018-09-03T13:16:28.622Z,8.70
2018-09-03T13:17:28.615Z,7.60
2018-09-03T13:18:28.660Z,7.90
2018-09-03T13:19:28.599Z,8.30
2018-09-03T13:20:28.586Z,8.00
2018-09-03T13:21:28.568Z,8.20
2018-09-03T13:22:28.556Z,8.70
2018-09-03T13:23:28.598Z,8.10
2018-09-03T13:24:28.542Z,8.90
2018-09-03T13:25:28.523Z,8.60
2018-09-03T13:26:28.519Z,8.50
2018-09-03T13:27:28.503Z,8.70
2018-09-03T13:28:28.539Z,8.70
2018-09-03T13:29:28.481Z,9.60
2018-09-03T13:30:28.475Z,8.50
2018-09-03T13:31:28.459Z,8.90
2018-09-03T13:32:28.450Z,8.50
2018-09-03T13:33:28.488Z,8.60
2018-09-03T13:34:28.427Z,8.30
2018-09-03T13:35:28.413Z,8.90
2018-09-03T13:36:28.404Z,9.80
2018-09-03T13:37:28.392Z,8.70
2018-09-03T13:38:28.427Z,8.90
2018-09-03T13:39:28.382Z,7.60
2018-09-03T13:40:28.364Z,8.00
2018-09-03T13:41:28.358Z,8.00
2018-09-03T13:42:28.406Z,8.00
2018-09-03T13:43:28.373Z,8.80
2018-09-03T13:44:28.321Z,8.70
2018-09-03T13:45:28.305Z,8.90
2018-09-03T13:46:28.294Z,9.40
2018-09-03T13:47:28.284Z,8.70
2018-09-03T13:48:28.316Z,8.20
2018-09-03T13:49:28.268Z,8.80
2018-09-03T13:50:28.254Z,9.40
2018-09-03T13:51:28.237Z,9.00
2018-09-03T13:52:28.238Z,9.50
2018-09-03T13:53:28.280Z,8.60
2018-09-03T13:54:28.208Z,8.50
2018-09-03T13:55:28.197Z,9.00
2018-09-03T13:56:28.234Z,9.00
2018-09-03T13:57:28.174Z,8.60
2018-09-03T13:58:28.179Z,8.80
2018-09-03T13:59:28.194Z,8.80
2018-09-03T14:00:28.143Z,8.90
2018-09-03T14:01:28.139Z,9.50
2018-09-03T14:02:28.115Z,9.50
2018-09-03T14:03:28.107Z,9.60
2018-09-03T14:04:28.143Z,9.20
2018-09-03T14:05:28.084Z,8.90
2018-09-03T14:06:28.078Z,8.80
2018-09-03T14:07:28.065Z,8.90
2018-09-03T14:08:28.050Z,8.70
2018-09-03T14:09:28.147Z,8.40
2018-09-03T14:10:28.035Z,8.10
2018-09-03T14:11:28.045Z,8.70
2018-09-03T14:12:28.015Z,8.40